Time;durP1;ratioP1;P1;durP2;ratioP2;P2;SDS_P1;SDS_P2;PMS_P1;PMS_P2;Temp;Humidity;BMP_temperature;BMP_pressure;BME280_temperature;BME280_humidity;BME280_pressure;Samples;Min_cycle;Max_cycle;Signal;HPM_P1;HPM_P2
2023/12/21 00:01:35;;;;;;;0.20;0.20;;;;;;;6.52;64.79;100648.78;4940637;28;20054;-87
2023/12/21 00:04:01;;;;;;;0.20;0.20;;;;;;;6.54;65.36;100657.28;4940132;28;20057;-87
2023/12/21 00:06:27;;;;;;;0.20;0.20;;;;;;;6.58;65.03;100653.72;4956132;28;20031;-85
2023/12/21 00:08:53;;;;;;;0.20;0.20;;;;;;;6.58;65.26;100648.59;4940155;28;20023;-86
2023/12/21 00:11:18;;;;;;;0.20;0.20;;;;;;;6.64;65.14;100659.56;4939852;28;20041;-88
2023/12/21 00:13:44;;;;;;;0.20;0.20;;;;;;;6.68;65.07;100658.56;4971801;28;20053;-88
2023/12/21 00:16:10;;;;;;;0.20;0.20;;;;;;;6.77;64.76;100658.28;4972191;28;20031;-87
2023/12/21 00:18:35;;;;;;;0.20;0.20;;;;;;;6.70;64.54;100656.81;4939915;28;20109;-87
2023/12/21 00:21:01;;;;;;;0.20;0.20;;;;;;;6.70;64.63;100656.81;4955545;28;20413;-87
2023/12/21 00:23:26;;;;;;;0.20;0.20;;;;;;;6.66;64.53;100650.91;4939629;28;20161;-87
2023/12/21 00:25:52;;;;;;;0.20;0.20;;;;;;;6.67;64.95;100654.31;4923846;28;20033;-86
2023/12/21 00:28:17;;;;;;;0.20;0.20;;;;;;;6.58;64.95;100650.31;4940068;28;20493;-87
2023/12/21 00:30:43;;;;;;;0.20;0.20;;;;;;;6.61;64.88;100651.06;4955541;28;20069;-86
2023/12/21 00:33:09;;;;;;;0.20;0.20;;;;;;;6.64;64.73;100654.44;4955255;28;20054;-86
2023/12/21 00:35:35;;;;;;;0.20;0.20;;;;;;;6.56;65.43;100647.78;4955504;28;20046;-87
2023/12/21 00:38:00;;;;;;;0.20;0.20;;;;;;;6.52;65.32;100669.34;4955489;28;20030;-88
2023/12/21 00:40:26;;;;;;;0.20;0.20;;;;;;;6.64;64.95;100662.13;4939212;28;20035;-86
2023/12/21 00:42:52;;;;;;;0.20;0.20;;;;;;;6.56;65.08;100652.94;4939506;28;20030;-87
2023/12/21 00:45:18;;;;;;;0.20;0.20;;;;;;;6.64;65.23;100662.13;4939507;28;20062;-87
2023/12/21 00:47:43;;;;;;;0.20;0.20;;;;;;;6.54;65.30;100654.72;4955247;28;20038;-87
2023/12/21 00:50:09;;;;;;;0.20;0.20;;;;;;;6.62;64.97;100654.47;4923186;28;20042;-86
2023/12/21 00:52:34;;;;;;;0.20;0.20;;;;;;;6.54;64.59;100641.03;4955200;28;20096;-86
2023/12/21 00:55:00;;;;;;;0.20;0.20;;;;;;;6.81;64.43;100653.00;4939080;28;20501;-86
2023/12/21 00:57:26;;;;;;;0.20;0.20;;;;;;;6.75;64.39;100652.34;4954612;28;20525;-86
2023/12/21 00:59:51;;;;;;;0.20;0.20;;;;;;;6.76;64.67;100651.44;4954811;28;20110;-86
2023/12/21 01:02:17;;;;;;;0.20;0.20;;;;;;;6.75;64.29;100648.03;4972062;28;20062;-87
2023/12/21 01:04:43;;;;;;;0.20;0.20;;;;;;;6.75;64.28;100636.91;4939130;28;20113;-86
2023/12/21 01:07:09;;;;;;;0.20;0.20;;;;;;;6.74;64.79;100642.97;4954681;28;20115;-86
2023/12/21 01:09:34;;;;;;;0.20;0.20;;;;;;;6.74;64.67;100640.38;4939034;28;20062;-87
2023/12/21 01:12:00;;;;;;;0.20;0.20;;;;;;;6.64;64.61;100610.72;4954554;28;20560;-87
2023/12/21 01:14:25;;;;;;;0.20;0.20;;;;;;;6.59;64.92;100610.91;4954767;28;20552;-87
2023/12/21 01:16:51;;;;;;;0.20;0.20;;;;;;;6.66;65.03;100634.66;4939051;28;20031;-86
2023/12/21 01:19:16;;;;;;;0.20;0.20;;;;;;;6.43;64.97;100572.00;4938967;28;20031;-87
2023/12/21 01:21:42;;;;;;;0.20;0.20;;;;;;;6.61;64.91;100611.69;4954729;28;20069;-87
2023/12/21 01:24:07;;;;;;;0.20;0.20;;;;;;;6.44;65.29;100622.50;4922971;28;20027;-85
2023/12/21 01:26:33;;;;;;;0.20;0.20;;;;;;;6.47;64.96;100606.97;4954582;28;20030;-86
2023/12/21 01:28:58;;;;;;;0.20;0.20;;;;;;;6.49;65.35;100601.78;4954639;28;20026;-87
2023/12/21 01:31:24;;;;;;;0.20;0.20;;;;;;;6.42;65.35;100610.59;4938455;28;20050;-87
2023/12/21 01:33:50;;;;;;;0.20;0.20;;;;;;;6.38;65.14;100604.69;4954503;28;20027;-86
2023/12/21 01:36:15;;;;;;;0.20;0.20;;;;;;;6.28;65.60;100609.28;4954587;28;20042;-87
2023/12/21 01:38:41;;;;;;;0.20;0.20;;;;;;;6.29;65.21;100602.41;4954329;28;20019;-87
2023/12/21 01:41:07;;;;;;;0.20;0.20;;;;;;;6.17;65.34;100601.06;4938765;28;20031;-87
2023/12/21 01:43:32;;;;;;;0.20;0.20;;;;;;;6.16;65.01;100611.41;4938443;28;20034;-86
2023/12/21 01:45:58;;;;;;;0.20;0.20;;;;;;;6.20;65.05;100621.53;4953883;28;20030;-86
2023/12/21 01:48:24;;;;;;;0.20;0.20;;;;;;;6.10;65.14;100598.75;4954392;28;20421;-87
2023/12/21 01:50:50;;;;;;;0.20;0.20;;;;;;;6.27;64.96;100617.03;4922496;28;20042;-87
2023/12/21 01:53:16;;;;;;;0.20;0.20;;;;;;;6.20;65.11;100598.44;4938809;28;20027;-87
2023/12/21 01:55:41;;;;;;;0.20;0.20;;;;;;;6.25;64.40;100613.69;4922600;28;20125;-87
2023/12/21 01:58:07;;;;;;;0.17;0.17;;;;;;;6.15;64.36;100591.75;4922541;28;20062;-87
2023/12/21 02:00:32;;;;;;;0.20;0.20;;;;;;;6.11;64.23;100613.28;4937914;28;20505;-86
2023/12/21 02:02:58;;;;;;;0.20;0.20;;;;;;;5.90;63.80;100579.66;4938719;28;20031;-85
2023/12/21 02:05:23;;;;;;;0.20;0.20;;;;;;;6.07;63.90;100591.97;4954294;28;20038;-87
2023/12/21 02:07:49;;;;;;;0.20;0.20;;;;;;;6.06;64.30;100623.69;4922394;28;20026;-85
2023/12/21 02:10:14;;;;;;;0.20;0.20;;;;;;;5.99;64.32;100617.03;4956826;28;20046;-86
2023/12/21 02:12:40;;;;;;;0.20;0.20;;;;;;;5.92;64.50;100621.53;4975689;28;20030;-86
2023/12/21 02:15:07;;;;;;;0.20;0.20;;;;;;;5.86;64.71;100619.09;4957868;28;20489;-87
2023/12/21 02:17:32;;;;;;;0.20;0.20;;;;;;;5.81;65.09;100618.41;4926227;28;20027;-87
2023/12/21 02:19:58;;;;;;;0.20;0.20;;;;;;;5.83;65.16;100621.78;4941777;28;20520;-86
2023/12/21 02:22:23;;;;;;;0.20;0.20;;;;;;;5.77;64.86;100627.06;4926133;28;20428;-86
2023/12/21 02:24:49;;;;;;;0.20;0.20;;;;;;;5.80;64.81;100637.28;4941621;28;20493;-87
2023/12/21 02:27:14;;;;;;;0.20;0.20;;;;;;;5.76;64.66;100635.66;4926000;28;20054;-86
2023/12/21 02:29:40;;;;;;;0.20;0.20;;;;;;;5.87;64.38;100633.63;4941926;28;20101;-87
2023/12/21 02:32:06;;;;;;;0.20;0.20;;;;;;;5.71;64.92;100622.13;4941466;28;20047;-86
2023/12/21 02:34:31;;;;;;;0.20;0.20;;;;;;;5.82;64.60;100632.09;4925725;28;20135;-85
2023/12/21 02:36:57;;;;;;;0.20;0.20;;;;;;;5.62;64.94;100600.16;4941651;28;20042;-86
2023/12/21 02:39:22;;;;;;;0.20;0.20;;;;;;;5.82;64.47;100632.94;4957672;28;20078;-86
2023/12/21 02:41:51;;;;;;;0.20;0.20;;;;;;;5.72;64.38;100613.56;4941347;28;20034;-87
2023/12/21 02:44:17;;;;;;;0.20;0.20;;;;;;;5.80;64.12;100637.28;4957778;28;20023;-85
2023/12/21 02:46:42;;;;;;;0.20;0.20;;;;;;;5.68;64.48;100625.63;4925780;28;20031;-87
2023/12/21 02:49:08;;;;;;;0.20;0.20;;;;;;;5.75;64.22;100636.56;4925646;28;20440;-86
2023/12/21 02:51:33;;;;;;;0.20;0.20;;;;;;;5.69;64.86;100623.88;4941223;28;20035;-86
2023/12/21 02:53:59;;;;;;;0.20;0.20;;;;;;;5.64;64.22;100612.94;4957329;28;20023;-85
2023/12/21 02:56:25;;;;;;;0.20;0.20;;;;;;;5.74;64.51;100622.03;4925627;28;20023;-86
2023/12/21 02:58:50;;;;;;;0.20;0.20;;;;;;;5.68;64.53;100617.06;4957043;28;20041;-86
2023/12/21 03:01:16;;;;;;;0.20;0.20;;;;;;;5.72;64.37;100616.97;4957314;28;20460;-86
2023/12/21 03:03:41;;;;;;;0.20;0.20;;;;;;;5.67;64.77;100626.50;4974688;28;20509;-87
2023/12/21 03:06:07;;;;;;;0.20;0.20;;;;;;;5.68;64.30;100645.31;4925187;28;20027;-86
2023/12/21 03:08:32;;;;;;;0.20;0.20;;;;;;;5.61;64.55;100615.59;4940995;28;20034;-86
2023/12/21 03:10:58;;;;;;;0.20;0.20;;;;;;;5.65;64.68;100635.13;4941103;28;20038;-85
2023/12/21 03:13:23;;;;;;;0.20;0.20;;;;;;;5.66;64.45;100624.81;4973773;28;20085;-85
2023/12/21 03:15:49;;;;;;;0.20;0.20;;;;;;;5.67;64.35;100625.66;4940797;28;20082;-87
2023/12/21 03:18:15;;;;;;;0.20;0.20;;;;;;;5.74;64.38;100657.97;4924979;28;20066;-85
2023/12/21 03:20:41;;;;;;;0.20;0.20;;;;;;;5.62;64.94;100651.47;4940084;28;20121;-87
2023/12/21 03:23:06;;;;;;;0.20;0.20;;;;;;;5.63;65.13;100662.56;4956661;28;20030;-87
2023/12/21 03:25:32;;;;;;;0.20;0.20;;;;;;;5.66;64.65;100667.63;4956685;28;20509;-86
2023/12/21 03:27:58;;;;;;;0.20;0.20;;;;;;;5.66;64.44;100649.66;4924527;28;20027;-87
2023/12/21 03:30:24;;;;;;;0.20;0.20;;;;;;;5.62;64.80;100658.34;4972737;28;20077;-86
2023/12/21 03:32:49;;;;;;;0.20;0.20;;;;;;;5.60;64.84;100657.50;4956429;28;20046;-86
2023/12/21 03:35:15;;;;;;;0.20;0.20;;;;;;;5.55;64.64;100647.38;4924806;28;20027;-86
2023/12/21 03:37:40;;;;;;;0.20;0.20;;;;;;;5.59;64.67;100648.97;4956492;28;20030;-86
2023/12/21 03:40:07;;;;;;;0.20;0.20;;;;;;;5.68;64.55;100673.53;4940594;28;20033;-86
2023/12/21 03:42:32;;;;;;;0.20;0.20;;;;;;;5.59;64.64;100658.41;4956330;28;20031;-86
2023/12/21 03:44:58;;;;;;;0.20;0.20;;;;;;;5.67;64.52;100677.00;4940845;28;20081;-86
2023/12/21 03:47:23;;;;;;;0.20;0.20;;;;;;;5.80;64.02;100682.63;4956502;28;20158;-86
2023/12/21 03:49:49;;;;;;;0.20;0.20;;;;;;;5.89;63.78;100687.50;4940733;28;20985;-86
2023/12/21 03:52:15;;;;;;;0.20;0.20;;;;;;;5.91;63.82;100686.63;4973633;28;20052;-86
2023/12/21 03:54:40;;;;;;;0.20;0.20;;;;;;;5.78;63.96;100685.22;4940338;28;20039;-86
2023/12/21 03:57:07;;;;;;;0.20;0.20;;;;;;;5.85;63.64;100696.19;4940012;28;20030;-87
2023/12/21 03:59:34;;;;;;;0.20;0.20;;;;;;;5.95;63.53;100695.06;4940201;28;20037;-86
2023/12/21 04:02:00;;;;;;;0.20;0.20;;;;;;;5.88;63.49;100676.38;4940708;28;20023;-88
2023/12/21 04:04:25;;;;;;;0.20;0.20;;;;;;;5.86;63.33;100693.56;4972066;28;20034;-86
2023/12/21 04:06:51;;;;;;;0.20;0.20;;;;;;;5.82;63.82;100686.00;4940219;28;20035;-86
2023/12/21 04:09:16;;;;;;;0.20;0.20;;;;;;;5.97;63.58;100712.09;4924289;28;20034;-85
2023/12/21 04:11:42;;;;;;;0.20;0.20;;;;;;;5.90;63.37;100705.47;4923724;28;20037;-84
2023/12/21 04:14:07;;;;;;;0.20;0.20;;;;;;;5.89;63.47;100703.75;4940078;28;20034;-85
2023/12/21 04:16:33;;;;;;;0.20;0.20;;;;;;;5.80;63.53;100698.88;4939722;28;20035;-86
2023/12/21 04:18:58;;;;;;;0.20;0.20;;;;;;;6.02;63.00;100704.28;4940194;28;20027;-85
2023/12/21 04:21:24;;;;;;;0.20;0.20;;;;;;;5.96;62.94;100702.72;4924032;28;20046;-87
2023/12/21 04:23:50;;;;;;;0.20;0.20;;;;;;;6.08;62.66;100698.09;4939927;28;20065;-86
2023/12/21 04:26:22;;;;;;;0.20;0.20;;;;;;;6.18;62.04;100704.66;4955720;28;20409;-86
2023/12/21 04:28:48;;;;;;;0.20;0.20;;;;;;;6.17;62.19;100708.13;4955650;28;20023;-86
2023/12/21 04:31:20;;;;;;;0.20;0.20;;;;;;;6.24;62.39;100709.63;4939573;28;20529;-88
2023/12/21 04:33:48;;;;;;;0.20;0.20;;;;;;;6.14;62.54;100697.94;4964410;28;20058;-86
2023/12/21 04:36:14;;;;;;;0.20;0.20;;;;;;;6.18;62.61;100700.38;4958258;28;20037;-87
2023/12/21 04:38:39;;;;;;;0.20;0.20;;;;;;;6.20;62.42;100695.22;4974601;28;20030;-85
2023/12/21 04:41:05;;;;;;;0.20;0.20;;;;;;;5.96;62.32;100695.00;4973986;28;20580;-86
2023/12/21 04:43:30;;;;;;;0.20;0.20;;;;;;;6.13;62.74;100702.25;4974674;28;20037;-87
2023/12/21 04:45:56;;;;;;;0.20;0.20;;;;;;;6.07;62.40;100701.56;4974877;28;20117;-89
2023/12/21 04:48:22;;;;;;;0.20;0.20;;;;;;;6.08;63.06;100723.78;4974461;28;20030;-86
2023/12/21 04:50:47;;;;;;;0.20;0.20;;;;;;;5.89;62.86;100711.44;4974146;28;20034;-86
2023/12/21 04:53:13;;;;;;;0.20;0.20;;;;;;;5.93;62.85;100699.41;4957980;28;20522;-85
2023/12/21 04:55:38;;;;;;;0.20;0.20;;;;;;;6.06;62.64;100705.03;4973981;28;20041;-86
2023/12/21 04:58:04;;;;;;;0.20;0.20;;;;;;;5.99;63.11;100720.59;4990001;28;20524;-85
2023/12/21 05:00:29;;;;;;;0.20;0.20;;;;;;;5.86;62.65;100698.69;4991572;28;20030;-86
2023/12/21 05:02:55;;;;;;;0.20;0.20;;;;;;;6.10;62.13;100714.34;4973788;28;20086;-86
2023/12/21 05:05:21;;;;;;;0.20;0.20;;;;;;;6.06;62.52;100725.56;4958011;28;20037;-87
2023/12/21 05:07:47;;;;;;;0.20;0.20;;;;;;;6.10;62.27;100737.47;4973791;28;20022;-86
2023/12/21 05:10:13;;;;;;;0.20;0.20;;;;;;;6.08;62.22;100724.63;4957696;28;20019;-87
2023/12/21 05:12:39;;;;;;;0.20;0.20;;;;;;;6.26;61.83;100749.78;4989744;28;20495;-86
2023/12/21 05:15:05;;;;;;;0.20;0.20;;;;;;;6.23;62.05;100743.91;4969247;28;20113;-87
2023/12/21 05:17:30;;;;;;;0.20;0.20;;;;;;;6.25;61.33;100742.13;4970975;28;20037;-87
2023/12/21 05:19:56;;;;;;;0.20;0.20;;;;;;;6.28;60.97;100732.59;4988045;28;20049;-84
2023/12/21 05:22:22;;;;;;;0.20;0.20;;;;;;;6.32;61.53;100748.78;4982210;28;20041;-93
2023/12/21 05:24:47;;;;;;;0.17;0.17;;;;;;;6.41;61.57;100758.81;4984510;28;20058;-85
2023/12/21 05:27:13;;;;;;;0.20;0.20;;;;;;;6.32;61.23;100759.06;4973153;28;20034;-85
2023/12/21 05:29:40;;;;;;;0.20;0.20;;;;;;;6.34;61.42;100757.28;4990668;28;20113;-85
2023/12/21 05:32:07;;;;;;;0.20;0.20;;;;;;;6.22;60.88;100721.69;4988959;28;20058;-85
2023/12/21 05:34:32;;;;;;;0.20;0.20;;;;;;;6.51;60.55;100759.38;4989698;28;20027;-86
2023/12/21 05:36:59;;;;;;;0.20;0.20;;;;;;;6.41;60.65;100770.81;4964644;28;20066;-87
2023/12/21 05:39:25;;;;;;;0.20;0.20;;;;;;;6.39;60.86;100769.97;4973614;28;20505;-89
2023/12/21 05:41:51;;;;;;;0.20;0.20;;;;;;;6.38;60.42;100756.28;4973874;28;20448;-88
2023/12/21 05:44:16;;;;;;;0.20;0.20;;;;;;;6.48;60.52;100770.56;4972976;28;20089;-87
2023/12/21 05:46:42;;;;;;;0.20;0.20;;;;;;;6.57;59.61;100772.84;4973081;28;20030;-91
2023/12/21 05:49:09;;;;;;;0.20;0.20;;;;;;;6.63;60.28;100769.28;4972209;28;20405;-93
2023/12/21 05:51:34;;;;;;;0.20;0.20;;;;;;;6.50;60.15;100765.41;4972179;28;20041;-85
2023/12/21 05:54:00;;;;;;;0.20;0.20;;;;;;;6.57;59.85;100770.28;4967017;28;20038;-86
2023/12/21 05:56:25;;;;;;;0.20;0.20;;;;;;;6.61;59.38;100753.91;4972229;28;20030;-90
2023/12/21 05:58:51;;;;;;;0.20;0.20;;;;;;;6.71;59.65;100763.91;4990241;28;20038;-89
2023/12/21 06:01:17;;;;;;;0.20;0.20;;;;;;;6.51;59.42;100742.22;4988632;28;20093;-88
2023/12/21 06:03:42;;;;;;;0.20;0.20;;;;;;;6.51;59.25;100721.66;4988194;28;20030;-89
2023/12/21 06:06:08;;;;;;;0.20;0.20;;;;;;;6.71;59.55;100762.16;4989326;28;20030;-86
2023/12/21 06:08:34;;;;;;;0.20;0.20;;;;;;;6.70;58.88;100733.94;4970732;28;20042;-87
2023/12/21 06:10:59;;;;;;;0.20;0.20;;;;;;;6.77;58.74;100745.69;4990622;28;20496;-90
2023/12/21 06:13:25;;;;;;;0.20;0.20;;;;;;;6.69;58.74;100742.56;4969233;28;20035;-87
2023/12/21 06:15:51;;;;;;;0.20;0.20;;;;;;;6.64;59.09;100719.53;4980424;28;20107;-86
2023/12/21 06:18:16;;;;;;;0.20;0.20;;;;;;;6.70;58.70;100739.09;4988048;28;20227;-91
2023/12/21 06:20:42;;;;;;;0.10;0.10;;;;;;;6.54;59.27;100724.13;4971028;28;20041;-88
2023/12/21 06:23:07;;;;;;;0.20;0.20;;;;;;;6.66;59.31;100743.47;4986997;28;20026;-90
2023/12/21 06:25:34;;;;;;;0.20;0.20;;;;;;;6.70;59.29;100754.50;4958290;28;20042;-93
2023/12/21 06:27:59;;;;;;;0.20;0.20;;;;;;;6.57;59.72;100742.00;4978578;28;20042;-89
2023/12/21 06:30:25;;;;;;;0.20;0.20;;;;;;;6.53;59.29;100716.47;4981608;28;20535;-90
2023/12/21 06:32:50;;;;;;;0.20;0.20;;;;;;;6.65;59.22;100746.09;4980767;28;20616;-86
2023/12/21 06:35:17;;;;;;;0.20;0.20;;;;;;;6.60;59.58;100757.34;4976807;28;20106;-84
2023/12/21 06:37:43;;;;;;;0.20;0.20;;;;;;;6.70;59.13;100770.78;4966955;28;20042;-88
2023/12/21 06:40:09;;;;;;;0.20;0.20;;;;;;;6.74;59.32;100768.94;4957847;28;20061;-88
2023/12/21 06:42:35;;;;;;;0.10;0.10;;;;;;;6.79;59.17;100777.38;4971492;28;20023;-83
2023/12/21 06:45:00;;;;;;;0.20;0.20;;;;;;;6.67;59.20;100754.59;4970387;28;20042;-83
2023/12/21 06:47:26;;;;;;;0.20;0.20;;;;;;;6.73;59.45;100762.13;4970954;28;20027;-85
2023/12/21 06:49:51;;;;;;;0.20;0.20;;;;;;;6.68;59.17;100772.53;4970247;28;20221;-91
2023/12/21 06:52:17;;;;;;;0.20;0.20;;;;;;;6.65;59.11;100753.78;4969987;28;20031;-89
2023/12/21 06:54:42;;;;;;;0.20;0.20;;;;;;;6.77;58.59;100745.69;4969462;28;20030;-84
2023/12/21 06:57:08;;;;;;;0.20;0.20;;;;;;;6.77;58.21;100741.38;4989433;28;20069;-89
2023/12/21 06:59:33;;;;;;;0.20;0.20;;;;;;;6.88;57.79;100749.63;4990267;28;20501;-90
2023/12/21 07:01:59;;;;;;;0.10;0.10;;;;;;;7.00;57.66;100763.00;4983972;28;20432;-86
2023/12/21 07:04:25;;;;;;;0.20;0.20;;;;;;;7.01;57.22;100734.66;4975420;28;20022;-88
2023/12/21 07:06:51;;;;;;;0.20;0.20;;;;;;;7.02;57.15;100731.19;4980429;28;20037;-90
2023/12/21 07:09:17;;;;;;;0.20;0.20;;;;;;;7.11;57.17;100750.63;4939657;28;20046;-92
2023/12/21 07:11:43;;;;;;;0.20;0.20;;;;;;;7.16;56.93;100744.41;4990963;28;20080;-92
2023/12/21 07:14:08;;;;;;;0.20;0.20;;;;;;;7.09;56.55;100731.81;4993697;28;20026;-89
2023/12/21 07:16:34;;;;;;;0.20;0.20;;;;;;;7.24;56.40;100745.91;4984951;28;20045;-91
2023/12/21 07:19:02;;;;;;;0.20;0.20;;;;;;;7.21;56.23;100738.28;4976613;28;20236;-91
2023/12/21 07:21:28;;;;;;;0.20;0.20;;;;;;;7.36;56.50;100750.63;4980018;28;20058;-87
2023/12/21 07:23:54;;;;;;;0.20;0.20;;;;;;;7.24;56.39;100735.63;4954577;28;20041;-92
2023/12/21 07:26:19;;;;;;;0.20;0.20;;;;;;;7.28;56.77;100762.94;4992372;28;20473;-90
2023/12/21 07:28:45;;;;;;;0.20;0.20;;;;;;;7.21;57.02;100762.28;4968690;28;20030;-89
2023/12/21 07:31:13;;;;;;;0.20;0.20;;;;;;;7.08;57.03;100764.44;4977180;28;20045;-91
2023/12/21 07:33:39;;;;;;;0.20;0.20;;;;;;;7.26;56.84;100754.41;4963041;28;20196;-91
2023/12/21 07:36:07;;;;;;;0.20;0.20;;;;;;;7.23;57.67;100764.81;4974279;28;20031;-91
2023/12/21 07:38:33;;;;;;;0.20;0.20;;;;;;;7.24;56.91;100774.22;4958364;28;20062;-93
2023/12/21 07:40:58;;;;;;;0.20;0.20;;;;;;;7.35;56.71;100774.69;4961403;28;20508;-92
2023/12/21 07:43:24;;;;;;;0.20;0.20;;;;;;;7.36;56.92;100771.22;4973652;28;20023;-87
2023/12/21 07:45:50;;;;;;;0.20;0.20;;;;;;;7.45;56.40;100782.06;4960427;28;20031;-86
2023/12/21 07:48:16;;;;;;;0.20;0.20;;;;;;;7.50;56.40;100779.34;4978949;28;20022;-89
2023/12/21 07:50:42;;;;;;;0.20;0.20;;;;;;;7.37;56.66;100754.88;4958685;28;20065;-87
2023/12/21 07:53:08;;;;;;;0.20;0.20;;;;;;;7.51;55.96;100780.19;4992072;28;20029;-86
2023/12/21 07:55:34;;;;;;;0.20;0.20;;;;;;;7.51;56.27;100781.03;4974355;28;20046;-86
2023/12/21 07:58:00;;;;;;;0.20;0.20;;;;;;;7.50;55.56;100794.78;4991280;28;20022;-86
2023/12/21 08:00:26;;;;;;;0.20;0.20;;;;;;;7.59;55.46;100779.03;4975922;28;20103;-90
2023/12/21 08:02:52;;;;;;;0.20;0.20;;;;;;;7.63;54.66;100775.44;4977036;28;20109;-86
2023/12/21 08:05:19;;;;;;;0.20;0.20;;;;;;;7.71;54.73;100788.06;4978466;28;20057;-93
2023/12/21 08:07:44;;;;;;;0.20;0.20;;;;;;;7.81;54.72;100793.75;4959328;28;20034;-91
2023/12/21 08:10:10;;;;;;;0.20;0.20;;;;;;;7.80;54.21;100797.22;4972388;28;20117;-94
2023/12/21 08:12:36;;;;;;;0.20;0.20;;;;;;;7.83;54.20;100812.56;4969103;28;20039;-89
2023/12/21 08:15:02;;;;;;;0.20;0.20;;;;;;;7.78;54.64;100805.00;4971915;28;20117;-90
2023/12/21 08:17:28;;;;;;;0.20;0.20;;;;;;;7.90;54.30;100808.88;4973386;28;20046;-88
2023/12/21 08:19:55;;;;;;;0.20;0.20;;;;;;;7.85;54.57;100800.44;4978237;28;20053;-92
2023/12/21 08:22:22;;;;;;;0.20;0.20;;;;;;;7.82;54.81;100808.31;4988308;28;20031;-92
2023/12/21 08:24:48;;;;;;;0.20;0.20;;;;;;;7.80;54.77;100797.22;4953336;28;20034;-90
2023/12/21 08:27:14;;;;;;;0.20;0.20;;;;;;;7.90;54.69;100803.72;4990941;28;20049;-91
2023/12/21 08:29:40;;;;;;;0.20;0.20;;;;;;;8.05;54.49;100774.81;4994705;28;20030;-93
2023/12/21 08:32:05;;;;;;;0.20;0.20;;;;;;;8.21;54.10;100798.31;4975509;28;20062;-87
2023/12/21 08:34:31;;;;;;;0.20;0.20;;;;;;;8.32;54.90;100801.34;4953333;28;20031;-91
2023/12/21 08:36:57;;;;;;;0.20;0.20;;;;;;;8.32;54.84;100775.56;4951097;28;20034;-88
2023/12/21 08:39:24;;;;;;;0.20;0.20;;;;;;;8.48;54.17;100783.59;4975558;28;20109;-89
2023/12/21 08:41:50;;;;;;;0.20;0.20;;;;;;;8.58;52.92;100787.53;4984024;28;20034;-92
2023/12/21 08:44:16;;;;;;;0.20;0.20;;;;;;;8.78;52.45;100785.00;4971706;28;20041;-90
2023/12/21 08:46:43;;;;;;;0.20;0.20;;;;;;;8.86;52.28;100782.97;4977354;28;20482;-90
2023/12/21 08:49:12;;;;;;;0.20;0.20;;;;;;;9.00;51.96;100786.75;4974078;28;20041;-93
2023/12/21 08:51:38;;;;;;;0.20;0.20;;;;;;;9.20;51.08;100776.44;4994506;28;20034;-90
2023/12/21 08:54:05;;;;;;;0.20;0.20;;;;;;;9.27;50.75;100783.06;4989261;28;20496;-89
2023/12/21 08:56:31;;;;;;;0.20;0.20;;;;;;;9.48;50.73;100774.41;4992455;28;20157;-88
2023/12/21 08:58:57;;;;;;;0.20;0.20;;;;;;;9.55;50.51;100771.59;4969302;28;20027;-93
2023/12/21 09:01:22;;;;;;;0.20;0.20;;;;;;;9.87;49.05;100770.19;4978104;28;20496;-92
2023/12/21 09:03:48;;;;;;;0.20;0.20;;;;;;;9.89;48.52;100751.13;4975705;28;20058;-91
2023/12/21 09:06:13;;;;;;;0.20;0.20;;;;;;;10.05;49.09;100770.22;4994437;28;20030;-88
2023/12/21 09:08:39;;;;;;;0.20;0.20;;;;;;;10.27;48.58;100771.88;4958462;28;20058;-92
2023/12/21 09:11:05;;;;;;;0.20;0.20;;;;;;;10.25;48.31;100763.34;4975863;28;20089;-84
2023/12/21 09:13:30;;;;;;;0.20;0.20;;;;;;;10.01;48.49;100760.91;4954358;28;20077;-85
2023/12/21 09:15:57;;;;;;;0.20;0.20;;;;;;;10.01;48.60;100765.25;4966943;28;20092;-89
2023/12/21 09:18:22;;;;;;;0.20;0.20;;;;;;;9.88;49.08;100764.97;4972384;28;20424;-88
2023/12/21 09:20:48;;;;;;;0.20;0.20;;;;;;;9.82;49.37;100766.97;4973957;28;20034;-90
2023/12/21 09:23:13;;;;;;;0.20;0.20;;;;;;;9.71;49.31;100762.25;4972598;28;20529;-92
2023/12/21 09:25:39;;;;;;;0.20;0.20;;;;;;;9.78;49.20;100761.09;4962333;28;20034;-87
2023/12/21 09:28:05;;;;;;;0.20;0.20;;;;;;;9.59;49.67;100745.53;4973061;28;20031;-94
2023/12/21 09:30:30;;;;;;;0.20;0.20;;;;;;;9.55;49.93;100730.25;4985679;28;20049;-90
2023/12/21 09:33:00;;;;;;;0.20;0.20;;;;;;;9.57;50.25;100733.63;4945051;28;20057;-93
2023/12/21 09:35:25;;;;;;;0.13;0.13;;;;;;;9.60;49.68;100733.47;4981834;28;20412;-91
2023/12/21 09:37:52;;;;;;;0.20;0.20;;;;;;;9.82;49.18;100728.19;5026439;23;20057;-91
2023/12/21 09:40:18;;;;;;;0.20;0.20;;;;;;;9.91;49.91;100732.97;4974718;28;20091;-91
2023/12/21 09:42:46;;;;;;;0.20;0.20;;;;;;;10.02;48.58;100729.00;4989251;28;20026;-86
2023/12/21 09:45:12;;;;;;;0.20;0.20;;;;;;;10.14;47.66;100719.03;4966456;28;20066;-88
2023/12/21 09:47:39;;;;;;;0.20;0.20;;;;;;;10.07;48.00;100714.13;4949739;28;20497;-91
2023/12/21 09:50:06;;;;;;;0.20;0.20;;;;;;;10.27;48.11;100704.66;4969760;28;20089;-87
2023/12/21 09:52:33;;;;;;;0.20;0.20;;;;;;;10.19;47.17;100702.38;4954683;28;20034;-86
2023/12/21 09:55:00;;;;;;;0.20;0.20;;;;;;;10.06;47.78;100704.69;4944002;28;20031;-92
2023/12/21 09:57:26;;;;;;;0.20;0.20;;;;;;;10.11;47.76;100703.63;4931415;28;20110;-91
2023/12/21 09:59:55;;;;;;;0.20;0.20;;;;;;;10.17;46.96;100706.78;4980994;28;20504;-90
2023/12/21 10:02:26;;;;;;;0.20;0.20;;;;;;;10.09;46.47;100710.63;4955319;28;20035;-88
2023/12/21 10:04:51;;;;;;;0.20;0.20;;;;;;;10.06;45.87;100702.13;4974739;28;20033;-85
2023/12/21 10:07:17;;;;;;;0.20;0.20;;;;;;;9.79;45.26;100659.41;4975287;28;20039;-90
2023/12/21 10:09:42;;;;;;;0.20;0.20;;;;;;;9.94;45.03;100700.09;4989233;28;20034;-89
2023/12/21 10:12:08;;;;;;;0.20;0.20;;;;;;;9.99;45.52;100698.13;4964887;28;20031;-92
2023/12/21 10:14:34;;;;;;;0.20;0.20;;;;;;;9.89;45.38;100693.44;4983908;28;20030;-88
2023/12/21 10:17:00;;;;;;;0.20;0.20;;;;;;;9.64;45.99;100658.38;4979163;28;20084;-92
2023/12/21 10:19:26;;;;;;;0.20;0.20;;;;;;;9.81;45.68;100688.59;4956872;28;20045;-89
2023/12/21 10:21:52;;;;;;;0.20;0.20;;;;;;;9.76;47.33;100686.25;4988909;28;20027;-92
2023/12/21 10:24:18;;;;;;;0.20;0.20;;;;;;;9.77;47.63;100681.91;4957141;28;20023;-91
2023/12/21 10:26:44;;;;;;;0.20;0.20;;;;;;;9.88;47.08;100684.00;4971172;28;20050;-91
2023/12/21 10:29:09;;;;;;;0.20;0.20;;;;;;;9.92;47.89;100678.63;4973571;28;20035;-87
2023/12/21 10:31:35;;;;;;;0.20;0.20;;;;;;;9.58;48.27;100666.38;4958950;28;20489;-89
2023/12/21 10:34:02;;;;;;;0.20;0.20;;;;;;;9.70;48.16;100657.25;4981082;28;20147;-91
2023/12/21 10:36:27;;;;;;;0.20;0.20;;;;;;;9.80;48.05;100657.69;4996395;28;20563;-93
2023/12/21 10:38:53;;;;;;;0.20;0.20;;;;;;;9.83;47.61;100642.03;4956989;29;20051;-92
2023/12/21 10:41:19;;;;;;;0.20;0.20;;;;;;;9.85;47.57;100628.16;4960948;29;20023;-93
2023/12/21 10:43:45;;;;;;;0.20;0.20;;;;;;;9.94;47.74;100639.81;4956907;29;20039;-91
2023/12/21 10:46:10;;;;;;;0.20;0.20;;;;;;;10.04;47.42;100626.41;4959073;29;20035;-84
2023/12/21 10:48:38;;;;;;;0.20;0.20;;;;;;;10.22;47.13;100634.22;4970987;28;20039;-90
2023/12/21 10:51:04;;;;;;;0.20;0.20;;;;;;;10.30;46.81;100634.69;4954582;29;20038;-90
2023/12/21 10:53:29;;;;;;;0.20;0.20;;;;;;;10.28;45.32;100655.44;4967445;28;20051;-91
2023/12/21 10:55:55;;;;;;;0.20;0.20;;;;;;;10.34;44.58;100620.72;4954415;29;20052;-89
2023/12/21 10:58:21;;;;;;;0.20;0.20;;;;;;;10.45;43.69;100620.19;4950403;29;20101;-91
2023/12/21 11:00:47;;;;;;;0.20;0.20;;;;;;;10.61;43.91;100600.41;4938426;29;20020;-91
2023/12/21 11:03:16;;;;;;;0.20;0.20;;;;;;;10.66;43.65;100601.03;4937633;29;20042;-92
2023/12/21 11:05:42;;;;;;;0.20;0.20;;;;;;;10.67;44.10;100578.59;4952589;29;20028;-88
2023/12/21 11:08:08;;;;;;;0.20;0.20;;;;;;;10.81;43.26;100602.84;4954404;28;20089;-86
2023/12/21 11:10:33;;;;;;;0.20;0.20;;;;;;;10.80;44.28;100589.97;4971453;28;20520;-89
2023/12/21 11:12:59;;;;;;;0.20;0.20;;;;;;;10.96;43.83;100596.06;4956618;28;20114;-92
2023/12/21 11:15:24;;;;;;;0.20;0.20;;;;;;;10.84;44.33;100563.88;4960586;29;20046;-88
2023/12/21 11:17:55;;;;;;;0.20;0.20;;;;;;;11.15;42.26;100588.19;4954452;28;20035;-88
2023/12/21 11:20:24;;;;;;;0.20;0.20;;;;;;;11.07;43.26;100567.88;4969620;28;20184;-92
2023/12/21 11:22:51;;;;;;;0.20;0.20;;;;;;;11.15;41.92;100580.44;4937225;29;20070;-87
2023/12/21 11:25:21;;;;;;;0.20;0.20;;;;;;;11.14;40.77;100556.28;4958133;28;20085;-87